sensor_id;sensor_type;location;lat;lon;timestamp;P1;durP1;ratioP1;P2;durP2;ratioP2
7191;SDS011;3637;51.494;11.958;2023-05-01T00:02:48;11.13;;;4.83;;
7191;SDS011;3637;51.494;11.958;2023-05-01T00:05:57;10.90;;;5.30;;
7191;SDS011;3637;51.494;11.958;2023-05-01T00:09:00;7.30;;;5.20;;
7191;SDS011;3637;51.494;11.958;2023-05-01T00:12:02;8.43;;;5.40;;
7191;SDS011;3637;51.494;11.958;2023-05-01T00:15:04;7.87;;;5.87;;
7191;SDS011;3637;51.494;11.958;2023-05-01T00:18:07;10.57;;;6.10;;
7191;SDS011;3637;51.494;11.958;2023-05-01T00:21:10;8.80;;;5.50;;
7191;SDS011;3637;51.494;11.958;2023-05-01T00:24:12;8.73;;;6.13;;
7191;SDS011;3637;51.494;11.958;2023-05-01T00:27:14;8.00;;;6.17;;
7191;SDS011;3637;51.494;11.958;2023-05-01T00:30:16;9.13;;;6.50;;
7191;SDS011;3637;51.494;11.958;2023-05-01T00:33:18;10.43;;;6.17;;
7191;SDS011;3637;51.494;11.958;2023-05-01T00:36:22;9.47;;;6.43;;
7191;SDS011;3637;51.494;11.958;2023-05-01T00:39:24;9.47;;;6.90;;
7191;SDS011;3637;51.494;11.958;2023-05-01T00:42:26;9.40;;;7.00;;
7191;SDS011;3637;51.494;11.958;2023-05-01T00:45:28;11.27;;;7.43;;
7191;SDS011;3637;51.494;11.958;2023-05-01T00:48:30;8.57;;;7.30;;
7191;SDS011;3637;51.494;11.958;2023-05-01T00:51:33;11.10;;;7.30;;
7191;SDS011;3637;51.494;11.958;2023-05-01T00:54:36;10.80;;;7.13;;
7191;SDS011;3637;51.494;11.958;2023-05-01T00:57:38;11.07;;;7.33;;
7191;SDS011;3637;51.494;11.958;2023-05-01T01:00:40;10.33;;;6.63;;
7191;SDS011;3637;51.494;11.958;2023-05-01T01:03:42;9.23;;;6.10;;
7191;SDS011;3637;51.494;11.958;2023-05-01T01:06:48;9.60;;;6.47;;
7191;SDS011;3637;51.494;11.958;2023-05-01T01:09:59;10.03;;;6.87;;
7191;SDS011;3637;51.494;11.958;2023-05-01T01:13:07;9.73;;;6.57;;
7191;SDS011;3637;51.494;11.958;2023-05-01T01:16:20;11.53;;;7.20;;
7191;SDS011;3637;51.494;11.958;2023-05-01T01:19:33;9.20;;;7.50;;
7191;SDS011;3637;51.494;11.958;2023-05-01T01:23:07;10.90;;;7.23;;
7191;SDS011;3637;51.494;11.958;2023-05-01T01:26:41;11.13;;;7.33;;
7191;SDS011;3637;51.494;11.958;2023-05-01T01:30:28;13.07;;;7.33;;
7191;SDS011;3637;51.494;11.958;2023-05-01T01:33:58;12.50;;;7.40;;
7191;SDS011;3637;51.494;11.958;2023-05-01T01:37:04;9.30;;;7.20;;
7191;SDS011;3637;51.494;11.958;2023-05-01T01:40:12;11.83;;;7.17;;
7191;SDS011;3637;51.494;11.958;2023-05-01T01:43:18;12.37;;;7.30;;
7191;SDS011;3637;51.494;11.958;2023-05-01T01:46:23;10.37;;;7.30;;
7191;SDS011;3637;51.494;11.958;2023-05-01T01:49:31;10.17;;;6.53;;
7191;SDS011;3637;51.494;11.958;2023-05-01T01:52:36;10.13;;;6.53;;
7191;SDS011;3637;51.494;11.958;2023-05-01T01:55:41;9.23;;;6.70;;
7191;SDS011;3637;51.494;11.958;2023-05-01T01:58:45;9.83;;;6.77;;
7191;SDS011;3637;51.494;11.958;2023-05-01T02:01:48;9.50;;;7.07;;
7191;SDS011;3637;51.494;11.958;2023-05-01T02:04:52;13.27;;;7.40;;
7191;SDS011;3637;51.494;11.958;2023-05-01T02:07:56;13.03;;;7.03;;
7191;SDS011;3637;51.494;11.958;2023-05-01T02:10:59;10.47;;;6.63;;
7191;SDS011;3637;51.494;11.958;2023-05-01T02:14:03;9.13;;;7.03;;
7191;SDS011;3637;51.494;11.958;2023-05-01T02:17:07;10.43;;;6.83;;
7191;SDS011;3637;51.494;11.958;2023-05-01T02:20:11;9.10;;;6.20;;
7191;SDS011;3637;51.494;11.958;2023-05-01T02:23:15;8.93;;;7.10;;
7191;SDS011;3637;51.494;11.958;2023-05-01T02:26:17;7.27;;;6.00;;
7191;SDS011;3637;51.494;11.958;2023-05-01T02:29:25;8.80;;;6.07;;
7191;SDS011;3637;51.494;11.958;2023-05-01T02:32:27;10.33;;;6.20;;
7191;SDS011;3637;51.494;11.958;2023-05-01T02:35:30;8.67;;;6.10;;
7191;SDS011;3637;51.494;11.958;2023-05-01T02:38:32;9.20;;;6.20;;
7191;SDS011;3637;51.494;11.958;2023-05-01T02:41:34;10.10;;;6.10;;
7191;SDS011;3637;51.494;11.958;2023-05-01T02:44:39;9.47;;;5.77;;
7191;SDS011;3637;51.494;11.958;2023-05-01T02:47:46;10.00;;;5.40;;
7191;SDS011;3637;51.494;11.958;2023-05-01T02:50:53;9.43;;;6.20;;
7191;SDS011;3637;51.494;11.958;2023-05-01T02:53:56;9.77;;;6.23;;
7191;SDS011;3637;51.494;11.958;2023-05-01T02:56:59;8.00;;;6.07;;
7191;SDS011;3637;51.494;11.958;2023-05-01T03:00:04;9.30;;;5.93;;
7191;SDS011;3637;51.494;11.958;2023-05-01T03:03:08;11.83;;;6.30;;
7191;SDS011;3637;51.494;11.958;2023-05-01T03:06:12;8.27;;;5.97;;
7191;SDS011;3637;51.494;11.958;2023-05-01T03:09:14;8.83;;;6.63;;
7191;SDS011;3637;51.494;11.958;2023-05-01T03:12:16;8.20;;;6.67;;
7191;SDS011;3637;51.494;11.958;2023-05-01T03:15:17;10.70;;;6.63;;
7191;SDS011;3637;51.494;11.958;2023-05-01T03:18:19;10.67;;;6.10;;
7191;SDS011;3637;51.494;11.958;2023-05-01T03:21:22;9.07;;;6.47;;
7191;SDS011;3637;51.494;11.958;2023-05-01T03:24:24;8.47;;;6.17;;
7191;SDS011;3637;51.494;11.958;2023-05-01T03:27:27;8.63;;;6.23;;
7191;SDS011;3637;51.494;11.958;2023-05-01T03:30:31;11.20;;;6.17;;
7191;SDS011;3637;51.494;11.958;2023-05-01T03:33:33;8.10;;;6.23;;
7191;SDS011;3637;51.494;11.958;2023-05-01T03:36:37;7.77;;;6.00;;
7191;SDS011;3637;51.494;11.958;2023-05-01T03:39:39;9.80;;;6.43;;
7191;SDS011;3637;51.494;11.958;2023-05-01T03:42:41;7.87;;;6.13;;
7191;SDS011;3637;51.494;11.958;2023-05-01T03:45:43;8.53;;;6.17;;
7191;SDS011;3637;51.494;11.958;2023-05-01T03:48:44;10.50;;;6.57;;
7191;SDS011;3637;51.494;11.958;2023-05-01T03:51:48;11.30;;;6.43;;
7191;SDS011;3637;51.494;11.958;2023-05-01T03:54:50;8.37;;;6.07;;
7191;SDS011;3637;51.494;11.958;2023-05-01T03:57:52;13.20;;;6.33;;
7191;SDS011;3637;51.494;11.958;2023-05-01T04:00:53;9.67;;;6.40;;
7191;SDS011;3637;51.494;11.958;2023-05-01T04:03:59;7.77;;;6.20;;
7191;SDS011;3637;51.494;11.958;2023-05-01T04:07:03;8.67;;;6.30;;
7191;SDS011;3637;51.494;11.958;2023-05-01T04:10:06;8.60;;;6.30;;
7191;SDS011;3637;51.494;11.958;2023-05-01T04:13:08;8.53;;;6.00;;
7191;SDS011;3637;51.494;11.958;2023-05-01T04:16:11;12.10;;;6.10;;
7191;SDS011;3637;51.494;11.958;2023-05-01T04:19:13;7.40;;;5.80;;
7191;SDS011;3637;51.494;11.958;2023-05-01T04:22:16;7.27;;;6.07;;
7191;SDS011;3637;51.494;11.958;2023-05-01T04:25:18;6.63;;;5.33;;
7191;SDS011;3637;51.494;11.958;2023-05-01T04:28:20;9.10;;;6.40;;
7191;SDS011;3637;51.494;11.958;2023-05-01T04:31:22;8.17;;;5.83;;
7191;SDS011;3637;51.494;11.958;2023-05-01T04:34:23;10.20;;;6.10;;
7191;SDS011;3637;51.494;11.958;2023-05-01T04:37:29;8.30;;;6.00;;
7191;SDS011;3637;51.494;11.958;2023-05-01T04:40:31;10.73;;;6.43;;
7191;SDS011;3637;51.494;11.958;2023-05-01T04:43:33;8.83;;;5.20;;
7191;SDS011;3637;51.494;11.958;2023-05-01T04:46:35;10.63;;;5.97;;
7191;SDS011;3637;51.494;11.958;2023-05-01T04:49:36;9.53;;;6.10;;
7191;SDS011;3637;51.494;11.958;2023-05-01T04:52:39;7.67;;;5.67;;
7191;SDS011;3637;51.494;11.958;2023-05-01T04:55:44;7.40;;;5.73;;
7191;SDS011;3637;51.494;11.958;2023-05-01T04:58:46;10.10;;;5.70;;
7191;SDS011;3637;51.494;11.958;2023-05-01T05:01:48;6.80;;;5.33;;
7191;SDS011;3637;51.494;11.958;2023-05-01T05:04:50;9.47;;;5.90;;
7191;SDS011;3637;51.494;11.958;2023-05-01T05:07:54;7.67;;;5.43;;
7191;SDS011;3637;51.494;11.958;2023-05-01T05:11:00;8.10;;;5.63;;
7191;SDS011;3637;51.494;11.958;2023-05-01T05:14:01;7.73;;;5.70;;
7191;SDS011;3637;51.494;11.958;2023-05-01T05:17:04;7.87;;;5.23;;
7191;SDS011;3637;51.494;11.958;2023-05-01T05:20:06;7.43;;;5.80;;
7191;SDS011;3637;51.494;11.958;2023-05-01T05:23:10;8.07;;;6.57;;
7191;SDS011;3637;51.494;11.958;2023-05-01T05:26:12;8.63;;;5.67;;
7191;SDS011;3637;51.494;11.958;2023-05-01T05:29:14;9.70;;;6.77;;
7191;SDS011;3637;51.494;11.958;2023-05-01T05:32:15;9.47;;;7.37;;
7191;SDS011;3637;51.494;11.958;2023-05-01T05:35:17;10.50;;;6.87;;
7191;SDS011;3637;51.494;11.958;2023-05-01T05:38:20;13.53;;;7.43;;
7191;SDS011;3637;51.494;11.958;2023-05-01T05:41:22;9.87;;;7.70;;
7191;SDS011;3637;51.494;11.958;2023-05-01T05:44:26;12.27;;;8.23;;
7191;SDS011;3637;51.494;11.958;2023-05-01T05:47:27;11.60;;;8.07;;
7191;SDS011;3637;51.494;11.958;2023-05-01T05:50:29;10.60;;;8.07;;
7191;SDS011;3637;51.494;11.958;2023-05-01T05:53:32;15.53;;;8.87;;
7191;SDS011;3637;51.494;11.958;2023-05-01T05:56:34;17.60;;;9.63;;
7191;SDS011;3637;51.494;11.958;2023-05-01T05:59:36;14.47;;;9.87;;
7191;SDS011;3637;51.494;11.958;2023-05-01T06:02:38;13.67;;;9.87;;
7191;SDS011;3637;51.494;11.958;2023-05-01T06:05:39;15.83;;;9.37;;
7191;SDS011;3637;51.494;11.958;2023-05-01T06:08:43;16.53;;;10.00;;
7191;SDS011;3637;51.494;11.958;2023-05-01T06:11:45;16.80;;;10.37;;
7191;SDS011;3637;51.494;11.958;2023-05-01T06:14:47;14.37;;;9.73;;
7191;SDS011;3637;51.494;11.958;2023-05-01T06:17:49;15.73;;;10.50;;
7191;SDS011;3637;51.494;11.958;2023-05-01T06:20:51;13.73;;;10.07;;
7191;SDS011;3637;51.494;11.958;2023-05-01T06:23:54;14.83;;;9.80;;
7191;SDS011;3637;51.494;11.958;2023-05-01T06:26:56;14.33;;;9.90;;
7191;SDS011;3637;51.494;11.958;2023-05-01T06:30:01;15.23;;;9.20;;
7191;SDS011;3637;51.494;11.958;2023-05-01T06:33:02;13.87;;;8.20;;
7191;SDS011;3637;51.494;11.958;2023-05-01T06:36:04;11.47;;;8.87;;
7191;SDS011;3637;51.494;11.958;2023-05-01T06:39:08;13.70;;;9.50;;
7191;SDS011;3637;51.494;11.958;2023-05-01T06:42:10;14.43;;;8.73;;
7191;SDS011;3637;51.494;11.958;2023-05-01T06:45:15;13.37;;;9.67;;
7191;SDS011;3637;51.494;11.958;2023-05-01T06:48:16;12.20;;;8.13;;
7191;SDS011;3637;51.494;11.958;2023-05-01T06:51:18;13.10;;;8.53;;
7191;SDS011;3637;51.494;11.958;2023-05-01T06:54:21;12.03;;;8.90;;
7191;SDS011;3637;51.494;11.958;2023-05-01T06:57:23;12.90;;;8.70;;
7191;SDS011;3637;51.494;11.958;2023-05-01T07:00:25;12.40;;;9.73;;
7191;SDS011;3637;51.494;11.958;2023-05-01T07:03:26;12.03;;;9.07;;
7191;SDS011;3637;51.494;11.958;2023-05-01T07:06:28;13.70;;;8.60;;
7191;SDS011;3637;51.494;11.958;2023-05-01T07:09:32;11.13;;;8.33;;
7191;SDS011;3637;51.494;11.958;2023-05-01T07:12:35;12.50;;;8.43;;
7191;SDS011;3637;51.494;11.958;2023-05-01T07:15:37;10.60;;;8.20;;
7191;SDS011;3637;51.494;11.958;2023-05-01T07:18:38;11.00;;;8.37;;
7191;SDS011;3637;51.494;11.958;2023-05-01T07:21:40;14.93;;;8.00;;
7191;SDS011;3637;51.494;11.958;2023-05-01T07:24:43;14.83;;;8.97;;
7191;SDS011;3637;51.494;11.958;2023-05-01T07:27:45;8.33;;;6.87;;
7191;SDS011;3637;51.494;11.958;2023-05-01T07:30:47;10.37;;;7.60;;
7191;SDS011;3637;51.494;11.958;2023-05-01T07:33:49;13.30;;;8.07;;
7191;SDS011;3637;51.494;11.958;2023-05-01T07:36:51;11.50;;;7.50;;
7191;SDS011;3637;51.494;11.958;2023-05-01T07:39:55;11.93;;;8.27;;
7191;SDS011;3637;51.494;11.958;2023-05-01T07:42:57;10.87;;;7.80;;
7191;SDS011;3637;51.494;11.958;2023-05-01T07:45:59;12.77;;;8.37;;
7191;SDS011;3637;51.494;11.958;2023-05-01T07:49:01;16.50;;;8.27;;
7191;SDS011;3637;51.494;11.958;2023-05-01T07:52:03;10.30;;;7.67;;
7191;SDS011;3637;51.494;11.958;2023-05-01T07:55:08;11.20;;;8.07;;
7191;SDS011;3637;51.494;11.958;2023-05-01T07:58:10;10.33;;;7.97;;
7191;SDS011;3637;51.494;11.958;2023-05-01T08:01:14;15.27;;;8.20;;
7191;SDS011;3637;51.494;11.958;2023-05-01T08:04:16;12.97;;;8.83;;
7191;SDS011;3637;51.494;11.958;2023-05-01T08:07:18;10.77;;;7.83;;
7191;SDS011;3637;51.494;11.958;2023-05-01T08:10:21;11.33;;;8.50;;
7191;SDS011;3637;51.494;11.958;2023-05-01T08:13:23;14.93;;;9.10;;
7191;SDS011;3637;51.494;11.958;2023-05-01T08:16:25;13.40;;;9.20;;
7191;SDS011;3637;51.494;11.958;2023-05-01T08:19:27;13.50;;;9.20;;
7191;SDS011;3637;51.494;11.958;2023-05-01T08:22:29;15.50;;;8.90;;
7191;SDS011;3637;51.494;11.958;2023-05-01T08:25:32;10.40;;;8.27;;
7191;SDS011;3637;51.494;11.958;2023-05-01T08:28:34;13.63;;;8.37;;
7191;SDS011;3637;51.494;11.958;2023-05-01T08:31:36;13.90;;;8.50;;
7191;SDS011;3637;51.494;11.958;2023-05-01T08:34:38;15.73;;;9.60;;
7191;SDS011;3637;51.494;11.958;2023-05-01T08:37:40;12.17;;;9.07;;
7191;SDS011;3637;51.494;11.958;2023-05-01T08:40:46;12.47;;;9.10;;
7191;SDS011;3637;51.494;11.958;2023-05-01T08:43:51;12.83;;;8.80;;
7191;SDS011;3637;51.494;11.958;2023-05-01T08:46:56;12.10;;;8.73;;
7191;SDS011;3637;51.494;11.958;2023-05-01T08:50:07;14.77;;;9.30;;
7191;SDS011;3637;51.494;11.958;2023-05-01T08:53:11;16.20;;;9.77;;
7191;SDS011;3637;51.494;11.958;2023-05-01T08:56:16;13.83;;;9.30;;
7191;SDS011;3637;51.494;11.958;2023-05-01T08:59:20;14.97;;;9.10;;
7191;SDS011;3637;51.494;11.958;2023-05-01T09:02:24;12.63;;;8.77;;
7191;SDS011;3637;51.494;11.958;2023-05-01T09:05:28;12.60;;;8.73;;
7191;SDS011;3637;51.494;11.958;2023-05-01T09:08:32;14.90;;;10.00;;
7191;SDS011;3637;51.494;11.958;2023-05-01T09:11:35;12.13;;;9.43;;
7191;SDS011;3637;51.494;11.958;2023-05-01T09:14:37;11.30;;;9.00;;
7191;SDS011;3637;51.494;11.958;2023-05-01T09:17:39;13.33;;;9.20;;
7191;SDS011;3637;51.494;11.958;2023-05-01T09:20:43;10.70;;;8.53;;
7191;SDS011;3637;51.494;11.958;2023-05-01T09:23:44;12.40;;;8.93;;
7191;SDS011;3637;51.494;11.958;2023-05-01T09:26:51;13.23;;;9.50;;
7191;SDS011;3637;51.494;11.958;2023-05-01T09:29:53;12.13;;;8.50;;
7191;SDS011;3637;51.494;11.958;2023-05-01T09:33:02;14.53;;;8.90;;
7191;SDS011;3637;51.494;11.958;2023-05-01T09:36:08;11.33;;;8.80;;
7191;SDS011;3637;51.494;11.958;2023-05-01T09:39:21;12.57;;;7.73;;
7191;SDS011;3637;51.494;11.958;2023-05-01T09:42:25;13.33;;;8.30;;
7191;SDS011;3637;51.494;11.958;2023-05-01T09:45:26;11.57;;;8.90;;
7191;SDS011;3637;51.494;11.958;2023-05-01T09:48:28;11.97;;;9.03;;
7191;SDS011;3637;51.494;11.958;2023-05-01T09:51:31;11.80;;;7.67;;
7191;SDS011;3637;51.494;11.958;2023-05-01T09:54:34;18.03;;;9.87;;
7191;SDS011;3637;51.494;11.958;2023-05-01T09:57:37;11.20;;;8.40;;
7191;SDS011;3637;51.494;11.958;2023-05-01T10:00:46;17.20;;;10.03;;
7191;SDS011;3637;51.494;11.958;2023-05-01T10:03:52;14.57;;;9.67;;
7191;SDS011;3637;51.494;11.958;2023-05-01T10:06:55;11.43;;;8.33;;
7191;SDS011;3637;51.494;11.958;2023-05-01T10:10:13;11.87;;;8.17;;
7191;SDS011;3637;51.494;11.958;2023-05-01T10:13:19;10.00;;;6.80;;
7191;SDS011;3637;51.494;11.958;2023-05-01T10:16:26;11.27;;;8.20;;
7191;SDS011;3637;51.494;11.958;2023-05-01T10:19:29;12.57;;;9.13;;
7191;SDS011;3637;51.494;11.958;2023-05-01T10:22:31;12.17;;;7.87;;
7191;SDS011;3637;51.494;11.958;2023-05-01T10:29:27;13.73;;;7.20;;
7191;SDS011;3637;51.494;11.958;2023-05-01T10:32:31;9.13;;;6.77;;
7191;SDS011;3637;51.494;11.958;2023-05-01T10:35:34;9.83;;;7.57;;
7191;SDS011;3637;51.494;11.958;2023-05-01T10:38:38;10.17;;;7.00;;
7191;SDS011;3637;51.494;11.958;2023-05-01T10:42:00;9.90;;;7.10;;
7191;SDS011;3637;51.494;11.958;2023-05-01T10:51:58;7.93;;;6.50;;
7191;SDS011;3637;51.494;11.958;2023-05-01T11:01:56;9.30;;;6.73;;
7191;SDS011;3637;51.494;11.958;2023-05-01T11:04:58;10.70;;;6.13;;
7191;SDS011;3637;51.494;11.958;2023-05-01T11:11:48;11.77;;;6.10;;
7191;SDS011;3637;51.494;11.958;2023-05-01T11:15:03;9.00;;;6.13;;
7191;SDS011;3637;51.494;11.958;2023-05-01T11:18:08;8.57;;;5.70;;
7191;SDS011;3637;51.494;11.958;2023-05-01T11:21:11;8.47;;;5.67;;
7191;SDS011;3637;51.494;11.958;2023-05-01T11:24:12;8.33;;;5.43;;
7191;SDS011;3637;51.494;11.958;2023-05-01T11:27:16;10.33;;;6.07;;
7191;SDS011;3637;51.494;11.958;2023-05-01T11:30:18;7.00;;;5.17;;
7191;SDS011;3637;51.494;11.958;2023-05-01T11:33:24;9.20;;;5.07;;
7191;SDS011;3637;51.494;11.958;2023-05-01T11:36:27;5.77;;;4.87;;
7191;SDS011;3637;51.494;11.958;2023-05-01T11:39:29;6.90;;;4.90;;
7191;SDS011;3637;51.494;11.958;2023-05-01T11:42:31;5.80;;;4.43;;
7191;SDS011;3637;51.494;11.958;2023-05-01T11:45:33;7.30;;;4.80;;
7191;SDS011;3637;51.494;11.958;2023-05-01T11:48:37;6.77;;;4.60;;
7191;SDS011;3637;51.494;11.958;2023-05-01T11:51:39;6.13;;;4.50;;
7191;SDS011;3637;51.494;11.958;2023-05-01T11:54:45;6.87;;;5.03;;
7191;SDS011;3637;51.494;11.958;2023-05-01T11:57:49;8.93;;;5.63;;
7191;SDS011;3637;51.494;11.958;2023-05-01T12:00:51;9.77;;;5.67;;
7191;SDS011;3637;51.494;11.958;2023-05-01T12:03:55;5.93;;;4.97;;
7191;SDS011;3637;51.494;11.958;2023-05-01T12:06:57;7.37;;;5.07;;
7191;SDS011;3637;51.494;11.958;2023-05-01T12:09:59;8.13;;;5.23;;
7191;SDS011;3637;51.494;11.958;2023-05-01T12:13:01;6.40;;;5.10;;
7191;SDS011;3637;51.494;11.958;2023-05-01T12:16:03;6.93;;;5.23;;
7191;SDS011;3637;51.494;11.958;2023-05-01T12:19:07;5.93;;;4.73;;
7191;SDS011;3637;51.494;11.958;2023-05-01T12:22:16;7.70;;;4.87;;
7191;SDS011;3637;51.494;11.958;2023-05-01T12:25:55;5.23;;;4.73;;
7191;SDS011;3637;51.494;11.958;2023-05-01T12:28:58;8.30;;;5.00;;
7191;SDS011;3637;51.494;11.958;2023-05-01T12:32:01;7.43;;;4.57;;
7191;SDS011;3637;51.494;11.958;2023-05-01T12:35:12;6.00;;;4.60;;
7191;SDS011;3637;51.494;11.958;2023-05-01T12:38:16;5.87;;;4.20;;
7191;SDS011;3637;51.494;11.958;2023-05-01T12:41:19;5.00;;;4.07;;
7191;SDS011;3637;51.494;11.958;2023-05-01T12:44:22;7.47;;;4.60;;
7191;SDS011;3637;51.494;11.958;2023-05-01T12:47:24;4.97;;;3.90;;
7191;SDS011;3637;51.494;11.958;2023-05-01T12:50:37;5.43;;;4.07;;
7191;SDS011;3637;51.494;11.958;2023-05-01T12:53:42;6.67;;;4.17;;
7191;SDS011;3637;51.494;11.958;2023-05-01T12:56:44;6.00;;;3.97;;
7191;SDS011;3637;51.494;11.958;2023-05-01T12:59:46;5.03;;;4.17;;
7191;SDS011;3637;51.494;11.958;2023-05-01T13:02:49;4.97;;;4.10;;
7191;SDS011;3637;51.494;11.958;2023-05-01T13:05:53;5.73;;;4.10;;
7191;SDS011;3637;51.494;11.958;2023-05-01T13:08:59;6.90;;;5.10;;
7191;SDS011;3637;51.494;11.958;2023-05-01T13:12:08;6.93;;;4.40;;
7191;SDS011;3637;51.494;11.958;2023-05-01T13:15:17;8.03;;;4.27;;
7191;SDS011;3637;51.494;11.958;2023-05-01T13:18:20;6.57;;;4.63;;
7191;SDS011;3637;51.494;11.958;2023-05-01T13:21:26;6.47;;;4.30;;
7191;SDS011;3637;51.494;11.958;2023-05-01T13:24:34;5.67;;;4.10;;
7191;SDS011;3637;51.494;11.958;2023-05-01T13:27:38;6.37;;;4.37;;
7191;SDS011;3637;51.494;11.958;2023-05-01T13:30:43;6.77;;;4.30;;
7191;SDS011;3637;51.494;11.958;2023-05-01T13:33:50;5.03;;;3.90;;
7191;SDS011;3637;51.494;11.958;2023-05-01T13:36:55;5.73;;;4.10;;
7191;SDS011;3637;51.494;11.958;2023-05-01T13:39:57;5.73;;;4.33;;
7191;SDS011;3637;51.494;11.958;2023-05-01T13:42:59;5.20;;;3.83;;
7191;SDS011;3637;51.494;11.958;2023-05-01T13:46:01;8.10;;;4.37;;
7191;SDS011;3637;51.494;11.958;2023-05-01T13:49:03;4.93;;;4.13;;
7191;SDS011;3637;51.494;11.958;2023-05-01T13:52:11;5.77;;;4.20;;
7191;SDS011;3637;51.494;11.958;2023-05-01T13:55:15;5.40;;;4.33;;
7191;SDS011;3637;51.494;11.958;2023-05-01T13:58:17;7.97;;;4.43;;
7191;SDS011;3637;51.494;11.958;2023-05-01T14:01:20;5.10;;;4.60;;
7191;SDS011;3637;51.494;11.958;2023-05-01T14:04:22;7.87;;;4.70;;
7191;SDS011;3637;51.494;11.958;2023-05-01T14:07:25;4.87;;;4.37;;
7191;SDS011;3637;51.494;11.958;2023-05-01T14:10:27;6.73;;;3.90;;
7191;SDS011;3637;51.494;11.958;2023-05-01T14:13:31;5.83;;;3.83;;
7191;SDS011;3637;51.494;11.958;2023-05-01T14:16:34;6.70;;;4.00;;
7191;SDS011;3637;51.494;11.958;2023-05-01T14:19:35;4.73;;;3.93;;
7191;SDS011;3637;51.494;11.958;2023-05-01T14:22:43;5.00;;;3.90;;
7191;SDS011;3637;51.494;11.958;2023-05-01T14:25:47;4.30;;;3.90;;
7191;SDS011;3637;51.494;11.958;2023-05-01T14:28:49;6.13;;;4.27;;
7191;SDS011;3637;51.494;11.958;2023-05-01T14:31:51;6.67;;;4.30;;
7191;SDS011;3637;51.494;11.958;2023-05-01T14:34:54;5.63;;;4.90;;
7191;SDS011;3637;51.494;11.958;2023-05-01T14:38:08;7.17;;;4.80;;
7191;SDS011;3637;51.494;11.958;2023-05-01T14:41:21;9.60;;;5.00;;
7191;SDS011;3637;51.494;11.958;2023-05-01T14:44:26;7.77;;;4.60;;
7191;SDS011;3637;51.494;11.958;2023-05-01T14:47:28;6.23;;;4.83;;
7191;SDS011;3637;51.494;11.958;2023-05-01T14:50:30;6.47;;;4.73;;
7191;SDS011;3637;51.494;11.958;2023-05-01T14:53:33;7.10;;;5.03;;
7191;SDS011;3637;51.494;11.958;2023-05-01T14:56:35;7.73;;;4.80;;
7191;SDS011;3637;51.494;11.958;2023-05-01T14:59:37;5.70;;;4.63;;
7191;SDS011;3637;51.494;11.958;2023-05-01T15:02:39;7.07;;;4.70;;
7191;SDS011;3637;51.494;11.958;2023-05-01T15:05:40;8.47;;;5.00;;
7191;SDS011;3637;51.494;11.958;2023-05-01T15:08:44;6.70;;;4.53;;
7191;SDS011;3637;51.494;11.958;2023-05-01T15:11:46;6.53;;;4.30;;
7191;SDS011;3637;51.494;11.958;2023-05-01T15:14:49;5.87;;;4.33;;
7191;SDS011;3637;51.494;11.958;2023-05-01T15:17:51;4.90;;;4.40;;
7191;SDS011;3637;51.494;11.958;2023-05-01T15:20:53;6.00;;;4.00;;
7191;SDS011;3637;51.494;11.958;2023-05-01T15:23:56;7.23;;;4.57;;
7191;SDS011;3637;51.494;11.958;2023-05-01T15:26:58;8.83;;;6.87;;
7191;SDS011;3637;51.494;11.958;2023-05-01T15:30:00;6.63;;;4.87;;
7191;SDS011;3637;51.494;11.958;2023-05-01T15:33:04;7.03;;;4.40;;
7191;SDS011;3637;51.494;11.958;2023-05-01T15:36:06;6.23;;;4.33;;
7191;SDS011;3637;51.494;11.958;2023-05-01T15:39:09;6.47;;;4.73;;
7191;SDS011;3637;51.494;11.958;2023-05-01T15:42:12;4.77;;;4.03;;
7191;SDS011;3637;51.494;11.958;2023-05-01T15:45:13;5.30;;;4.10;;
7191;SDS011;3637;51.494;11.958;2023-05-01T15:48:15;7.23;;;4.27;;
7191;SDS011;3637;51.494;11.958;2023-05-01T15:51:17;7.43;;;4.80;;
7191;SDS011;3637;51.494;11.958;2023-05-01T15:54:21;5.40;;;4.17;;
7191;SDS011;3637;51.494;11.958;2023-05-01T15:57:23;6.17;;;4.53;;
7191;SDS011;3637;51.494;11.958;2023-05-01T16:00:25;7.80;;;4.57;;
7191;SDS011;3637;51.494;11.958;2023-05-01T16:03:27;8.30;;;4.40;;
7191;SDS011;3637;51.494;11.958;2023-05-01T16:06:29;4.40;;;3.97;;
7191;SDS011;3637;51.494;11.958;2023-05-01T16:09:33;5.67;;;4.73;;
7191;SDS011;3637;51.494;11.958;2023-05-01T16:12:34;7.53;;;4.43;;
7191;SDS011;3637;51.494;11.958;2023-05-01T16:15:36;6.37;;;4.57;;
7191;SDS011;3637;51.494;11.958;2023-05-01T16:18:39;9.63;;;5.30;;
7191;SDS011;3637;51.494;11.958;2023-05-01T16:21:41;7.57;;;4.63;;
7191;SDS011;3637;51.494;11.958;2023-05-01T16:24:45;6.20;;;4.57;;
7191;SDS011;3637;51.494;11.958;2023-05-01T16:27:47;6.30;;;4.57;;
7191;SDS011;3637;51.494;11.958;2023-05-01T16:30:49;6.13;;;4.67;;
7191;SDS011;3637;51.494;11.958;2023-05-01T16:33:50;6.03;;;4.47;;
7191;SDS011;3637;51.494;11.958;2023-05-01T16:36:53;5.60;;;4.77;;
7191;SDS011;3637;51.494;11.958;2023-05-01T16:39:57;4.77;;;4.27;;
7191;SDS011;3637;51.494;11.958;2023-05-01T16:42:59;5.53;;;4.40;;
7191;SDS011;3637;51.494;11.958;2023-05-01T16:46:01;5.07;;;3.93;;
7191;SDS011;3637;51.494;11.958;2023-05-01T16:49:03;4.63;;;3.80;;
7191;SDS011;3637;51.494;11.958;2023-05-01T16:52:05;5.57;;;4.20;;
7191;SDS011;3637;51.494;11.958;2023-05-01T16:55:11;5.33;;;4.07;;
7191;SDS011;3637;51.494;11.958;2023-05-01T16:58:15;7.77;;;3.97;;
7191;SDS011;3637;51.494;11.958;2023-05-01T17:01:16;6.33;;;3.90;;
7191;SDS011;3637;51.494;11.958;2023-05-01T17:04:18;7.33;;;4.13;;
7191;SDS011;3637;51.494;11.958;2023-05-01T17:07:21;5.17;;;3.93;;
7191;SDS011;3637;51.494;11.958;2023-05-01T17:10:24;6.80;;;3.93;;
7191;SDS011;3637;51.494;11.958;2023-05-01T17:13:26;5.17;;;3.90;;
7191;SDS011;3637;51.494;11.958;2023-05-01T17:16:28;4.93;;;3.60;;
7191;SDS011;3637;51.494;11.958;2023-05-01T17:19:32;4.67;;;3.73;;
7191;SDS011;3637;51.494;11.958;2023-05-01T17:22:34;5.60;;;4.00;;
7191;SDS011;3637;51.494;11.958;2023-05-01T17:25:37;7.00;;;4.03;;
7191;SDS011;3637;51.494;11.958;2023-05-01T17:28:39;5.70;;;4.37;;
7191;SDS011;3637;51.494;11.958;2023-05-01T17:31:40;5.40;;;4.20;;
7191;SDS011;3637;51.494;11.958;2023-05-01T17:34:42;6.33;;;4.13;;
7191;SDS011;3637;51.494;11.958;2023-05-01T17:37:44;6.10;;;4.37;;
7191;SDS011;3637;51.494;11.958;2023-05-01T17:40:47;7.70;;;4.57;;
7191;SDS011;3637;51.494;11.958;2023-05-01T17:43:49;7.00;;;4.33;;
7191;SDS011;3637;51.494;11.958;2023-05-01T17:46:51;6.37;;;4.57;;
7191;SDS011;3637;51.494;11.958;2023-05-01T17:49:53;6.37;;;4.70;;
7191;SDS011;3637;51.494;11.958;2023-05-01T17:52:54;9.63;;;5.50;;
7191;SDS011;3637;51.494;11.958;2023-05-01T17:55:58;6.10;;;4.73;;
7191;SDS011;3637;51.494;11.958;2023-05-01T17:58:59;6.57;;;4.60;;
7191;SDS011;3637;51.494;11.958;2023-05-01T18:02:01;6.83;;;4.70;;
7191;SDS011;3637;51.494;11.958;2023-05-01T18:05:04;5.07;;;4.50;;
7191;SDS011;3637;51.494;11.958;2023-05-01T18:08:06;7.73;;;4.90;;
7191;SDS011;3637;51.494;11.958;2023-05-01T18:11:09;7.00;;;5.00;;
7191;SDS011;3637;51.494;11.958;2023-05-01T18:14:14;6.17;;;4.50;;
7191;SDS011;3637;51.494;11.958;2023-05-01T18:17:16;7.80;;;5.20;;
7191;SDS011;3637;51.494;11.958;2023-05-01T18:20:18;9.93;;;4.70;;
7191;SDS011;3637;51.494;11.958;2023-05-01T18:23:20;5.47;;;4.57;;
7191;SDS011;3637;51.494;11.958;2023-05-01T18:26:25;9.17;;;4.73;;
7191;SDS011;3637;51.494;11.958;2023-05-01T18:29:27;5.33;;;4.13;;
7191;SDS011;3637;51.494;11.958;2023-05-01T18:32:30;8.63;;;5.10;;
7191;SDS011;3637;51.494;11.958;2023-05-01T18:35:32;6.67;;;5.00;;
7191;SDS011;3637;51.494;11.958;2023-05-01T18:38:33;5.93;;;4.40;;
7191;SDS011;3637;51.494;11.958;2023-05-01T18:41:37;7.70;;;4.30;;
7191;SDS011;3637;51.494;11.958;2023-05-01T18:44:38;6.60;;;4.70;;
7191;SDS011;3637;51.494;11.958;2023-05-01T18:47:40;6.43;;;4.53;;
7191;SDS011;3637;51.494;11.958;2023-05-01T18:50:42;5.30;;;4.60;;
7191;SDS011;3637;51.494;11.958;2023-05-01T18:53:45;7.77;;;4.63;;
7191;SDS011;3637;51.494;11.958;2023-05-01T18:56:48;7.90;;;4.80;;
7191;SDS011;3637;51.494;11.958;2023-05-01T18:59:50;6.43;;;4.73;;